createdAt,value
2022-10-11T00:07:19.505Z,6.7
2022-10-11T00:17:19.760Z,6.6
2022-10-11T00:27:20.704Z,6.5
2022-10-11T00:37:21.069Z,6.4
2022-10-11T00:47:21.681Z,6.3
2022-10-11T00:57:21.992Z,6.3
2022-10-11T01:07:22.394Z,6.2
2022-10-11T01:17:23.071Z,6.1
2022-10-11T01:27:23.204Z,6
2022-10-11T01:47:24.057Z,6.1
2022-10-11T01:57:25.009Z,6.3
2022-10-11T02:17:26.160Z,6
2022-10-11T02:27:26.531Z,5.8
2022-10-11T02:37:26.964Z,5.8
2022-10-11T02:47:27.405Z,5.9
2022-10-11T02:57:27.968Z,5.8
2022-10-11T03:07:28.487Z,5.7
2022-10-11T03:17:36.409Z,5.5
2022-10-11T03:27:29.748Z,5.3
2022-10-11T03:37:30.539Z,5.1
2022-10-11T03:57:31.354Z,4.9
2022-10-11T04:07:31.818Z,4.8
2022-10-11T04:17:32.485Z,4.9
2022-10-11T04:27:33.363Z,5
2022-10-11T04:37:34.158Z,5.2
2022-10-11T04:47:34.698Z,5.3
2022-10-11T05:07:36.205Z,5
2022-10-11T05:17:37.044Z,5
2022-10-11T05:27:37.782Z,4.9
2022-10-11T05:37:37.904Z,4.9
2022-10-11T05:57:39.260Z,4.9
2022-10-11T06:07:39.886Z,4.9
2022-10-11T06:27:41.106Z,4.8
2022-10-11T06:37:41.515Z,4.9
2022-10-11T06:47:41.758Z,5
2022-10-11T06:57:42.340Z,5.1
2022-10-11T07:07:42.971Z,5.4
2022-10-11T07:17:43.933Z,5.7
2022-10-11T07:27:44.691Z,6
2022-10-11T07:37:45.688Z,6.4
2022-10-11T07:47:46.073Z,6.7
2022-10-11T07:57:46.181Z,7
2022-10-11T08:07:46.320Z,7.5
2022-10-11T08:27:47.214Z,8.3
2022-10-11T08:37:47.559Z,8.6
2022-10-11T08:47:48.035Z,9
2022-10-11T08:57:48.204Z,9.6
2022-10-11T09:07:48.987Z,10.2
2022-10-11T09:17:49.374Z,11.2
2022-10-11T09:28:02.157Z,11.9
2022-10-11T09:37:50.511Z,12.4
2022-10-11T09:57:51.519Z,13.1
2022-10-11T10:07:51.966Z,12.9
2022-10-11T10:17:52.855Z,13
2022-10-11T10:27:53.624Z,13.2
2022-10-11T10:37:54.593Z,13.3
2022-10-11T10:47:55.175Z,13.4
2022-10-11T10:57:55.390Z,13.4
2022-10-11T11:07:56.505Z,13.5
2022-10-11T11:17:56.735Z,13.6
2022-10-11T11:27:57.302Z,13.8
2022-10-11T11:38:02.622Z,14
2022-10-11T11:47:58.338Z,14.2
2022-10-11T11:58:01.101Z,14.1
2022-10-11T12:18:00.135Z,14.4
2022-10-11T12:28:00.341Z,14.6
2022-10-11T12:38:00.892Z,14.7
2022-10-11T12:48:01.806Z,15
2022-10-11T12:58:02.884Z,15.2
2022-10-11T13:08:03.051Z,15.7
2022-10-11T13:18:03.950Z,15.8
2022-10-11T13:28:04.199Z,16.3
2022-10-11T13:38:04.804Z,16.5
2022-10-11T13:48:05.440Z,15.8
2022-10-11T14:08:07.167Z,15
2022-10-11T14:18:08.101Z,15.4
2022-10-11T14:38:09.956Z,14.7
2022-10-11T14:48:10.230Z,14.2
2022-10-11T15:08:10.598Z,15.7
2022-10-11T15:18:11.032Z,15.5
2022-10-11T15:28:11.401Z,15
2022-10-11T15:38:12.110Z,14.7
2022-10-11T15:48:12.923Z,14.4
2022-10-11T15:58:13.494Z,14.1
2022-10-11T16:18:14.904Z,13.6
2022-10-11T16:28:15.459Z,13
2022-10-11T16:38:16.214Z,12.5
2022-10-11T16:48:17.063Z,12.1
2022-10-11T16:58:17.639Z,11.6
2022-10-11T17:08:18.679Z,11.1
2022-10-11T17:28:19.771Z,10.2
2022-10-11T17:38:20.322Z,9.8
2022-10-11T17:48:21.237Z,9.5
2022-10-11T17:58:22.086Z,9.2
2022-10-11T18:08:22.589Z,8.9
2022-10-11T18:18:23.555Z,8.7
2022-10-11T18:28:24.385Z,8.6
2022-10-11T18:38:24.535Z,8.4
2022-10-11T18:48:25.061Z,8.1
2022-10-11T19:08:26.820Z,7.8
2022-10-11T19:18:27.700Z,7.6
2022-10-11T19:28:28.485Z,7.4
2022-10-11T19:38:29.095Z,7.2
2022-10-11T19:48:30.041Z,7.1
2022-10-11T19:58:30.538Z,7
2022-10-11T20:08:31.497Z,6.8
2022-10-11T20:18:31.680Z,6.7
2022-10-11T20:38:32.967Z,6.4
2022-10-11T20:48:33.630Z,6.3
2022-10-11T20:58:34.162Z,6.2
2022-10-11T21:08:34.442Z,6
2022-10-11T21:18:34.802Z,5.9
2022-10-11T21:38:35.303Z,5.7
2022-10-11T21:48:35.561Z,5.6
2022-10-11T21:58:36.505Z,5.5
2022-10-11T22:08:36.856Z,5.5
2022-10-11T22:18:37.078Z,5.4
2022-10-11T22:28:37.824Z,5.2
2022-10-11T22:48:38.526Z,5.1
2022-10-11T22:58:39.209Z,5
2022-10-11T23:28:40.043Z,4.7
2022-10-11T23:38:40.600Z,4.7
2022-10-11T23:58:41.791Z,4.6
